sensor_id;sensor_type;location;lat;lon;timestamp;P1;durP1;ratioP1;P2;durP2;ratioP2
35891;SDS011;21993;42.672;23.296;2022-12-20T00:02:07;14.80;;;7.50;;
35891;SDS011;21993;42.672;23.296;2022-12-20T00:04:33;12.83;;;6.87;;
35891;SDS011;21993;42.672;23.296;2022-12-20T00:06:58;16.33;;;7.80;;
35891;SDS011;21993;42.672;23.296;2022-12-20T00:09:24;13.47;;;7.50;;
35891;SDS011;21993;42.672;23.296;2022-12-20T00:11:49;11.87;;;7.53;;
35891;SDS011;21993;42.672;23.296;2022-12-20T00:14:15;15.60;;;8.10;;
35891;SDS011;21993;42.672;23.296;2022-12-20T00:16:40;14.57;;;7.60;;
35891;SDS011;21993;42.672;23.296;2022-12-20T00:19:06;12.27;;;7.13;;
35891;SDS011;21993;42.672;23.296;2022-12-20T00:21:32;12.77;;;7.17;;
35891;SDS011;21993;42.672;23.296;2022-12-20T00:23:58;19.23;;;7.40;;
35891;SDS011;21993;42.672;23.296;2022-12-20T00:26:28;12.00;;;7.17;;
35891;SDS011;21993;42.672;23.296;2022-12-20T00:28:55;13.77;;;7.60;;
35891;SDS011;21993;42.672;23.296;2022-12-20T00:31:21;13.97;;;7.10;;
35891;SDS011;21993;42.672;23.296;2022-12-20T00:33:48;11.47;;;6.93;;
35891;SDS011;21993;42.672;23.296;2022-12-20T00:36:16;12.30;;;6.80;;
35891;SDS011;21993;42.672;23.296;2022-12-20T00:38:48;14.27;;;6.80;;
35891;SDS011;21993;42.672;23.296;2022-12-20T00:41:16;13.10;;;7.20;;
35891;SDS011;21993;42.672;23.296;2022-12-20T00:43:44;10.93;;;6.77;;
35891;SDS011;21993;42.672;23.296;2022-12-20T00:46:10;13.50;;;7.63;;
35891;SDS011;21993;42.672;23.296;2022-12-20T00:48:37;14.20;;;6.77;;
35891;SDS011;21993;42.672;23.296;2022-12-20T00:51:04;16.93;;;7.80;;
35891;SDS011;21993;42.672;23.296;2022-12-20T00:53:34;13.27;;;7.40;;
35891;SDS011;21993;42.672;23.296;2022-12-20T00:56:01;8.80;;;5.90;;
35891;SDS011;21993;42.672;23.296;2022-12-20T00:58:27;10.37;;;7.07;;
35891;SDS011;21993;42.672;23.296;2022-12-20T01:00:53;10.03;;;6.93;;
35891;SDS011;21993;42.672;23.296;2022-12-20T01:03:19;9.67;;;5.57;;
35891;SDS011;21993;42.672;23.296;2022-12-20T01:05:52;13.60;;;7.67;;
35891;SDS011;21993;42.672;23.296;2022-12-20T01:08:19;8.93;;;5.60;;
35891;SDS011;21993;42.672;23.296;2022-12-20T01:10:46;13.37;;;7.10;;
35891;SDS011;21993;42.672;23.296;2022-12-20T01:13:11;12.93;;;7.27;;
35891;SDS011;21993;42.672;23.296;2022-12-20T01:15:37;11.23;;;6.53;;
35891;SDS011;21993;42.672;23.296;2022-12-20T01:18:02;13.43;;;7.13;;
35891;SDS011;21993;42.672;23.296;2022-12-20T01:20:28;8.70;;;6.00;;
35891;SDS011;21993;42.672;23.296;2022-12-20T01:22:53;11.53;;;5.60;;
35891;SDS011;21993;42.672;23.296;2022-12-20T01:25:19;8.60;;;5.70;;
35891;SDS011;21993;42.672;23.296;2022-12-20T01:27:44;11.83;;;5.97;;
35891;SDS011;21993;42.672;23.296;2022-12-20T01:30:10;10.70;;;6.60;;
35891;SDS011;21993;42.672;23.296;2022-12-20T01:32:36;9.97;;;6.37;;
35891;SDS011;21993;42.672;23.296;2022-12-20T01:35:01;12.23;;;6.37;;
35891;SDS011;21993;42.672;23.296;2022-12-20T01:37:27;9.17;;;5.50;;
35891;SDS011;21993;42.672;23.296;2022-12-20T01:39:52;12.87;;;6.07;;
35891;SDS011;21993;42.672;23.296;2022-12-20T01:42:18;11.70;;;5.97;;
35891;SDS011;21993;42.672;23.296;2022-12-20T01:47:09;10.87;;;6.03;;
35891;SDS011;21993;42.672;23.296;2022-12-20T01:49:41;10.57;;;5.57;;
35891;SDS011;21993;42.672;23.296;2022-12-20T01:52:13;10.00;;;5.67;;
35891;SDS011;21993;42.672;23.296;2022-12-20T01:57:21;14.37;;;6.20;;
35891;SDS011;21993;42.672;23.296;2022-12-20T01:59:53;10.20;;;5.70;;
35891;SDS011;21993;42.672;23.296;2022-12-20T02:02:20;9.53;;;6.20;;
35891;SDS011;21993;42.672;23.296;2022-12-20T02:04:46;8.63;;;5.20;;
35891;SDS011;21993;42.672;23.296;2022-12-20T02:07:17;9.67;;;6.30;;
35891;SDS011;21993;42.672;23.296;2022-12-20T02:09:48;7.27;;;5.20;;
35891;SDS011;21993;42.672;23.296;2022-12-20T02:12:14;11.13;;;6.23;;
35891;SDS011;21993;42.672;23.296;2022-12-20T02:34:32;11.43;;;6.50;;
35891;SDS011;21993;42.672;23.296;2022-12-20T02:36:59;13.77;;;6.53;;
35891;SDS011;21993;42.672;23.296;2022-12-20T02:39:25;11.37;;;6.23;;
35891;SDS011;21993;42.672;23.296;2022-12-20T02:41:54;9.97;;;6.40;;
35891;SDS011;21993;42.672;23.296;2022-12-20T02:44:24;8.83;;;5.53;;
35891;SDS011;21993;42.672;23.296;2022-12-20T02:47:16;11.57;;;6.13;;
35891;SDS011;21993;42.672;23.296;2022-12-20T02:49:48;11.77;;;6.20;;
35891;SDS011;21993;42.672;23.296;2022-12-20T02:52:15;12.17;;;7.00;;
35891;SDS011;21993;42.672;23.296;2022-12-20T02:54:44;11.20;;;6.17;;
35891;SDS011;21993;42.672;23.296;2022-12-20T02:57:11;10.40;;;5.83;;
35891;SDS011;21993;42.672;23.296;2022-12-20T02:59:46;15.87;;;7.03;;
35891;SDS011;21993;42.672;23.296;2022-12-20T03:02:19;12.87;;;6.53;;
35891;SDS011;21993;42.672;23.296;2022-12-20T03:04:45;10.30;;;6.10;;
35891;SDS011;21993;42.672;23.296;2022-12-20T03:07:12;11.93;;;6.47;;
35891;SDS011;21993;42.672;23.296;2022-12-20T03:09:39;10.60;;;5.40;;
35891;SDS011;21993;42.672;23.296;2022-12-20T03:12:07;11.57;;;6.00;;
35891;SDS011;21993;42.672;23.296;2022-12-20T03:14:33;10.43;;;6.70;;
35891;SDS011;21993;42.672;23.296;2022-12-20T03:16:59;12.53;;;7.47;;
35891;SDS011;21993;42.672;23.296;2022-12-20T03:19:24;12.93;;;6.10;;
35891;SDS011;21993;42.672;23.296;2022-12-20T03:21:50;18.33;;;6.20;;
35891;SDS011;21993;42.672;23.296;2022-12-20T03:24:16;10.73;;;6.53;;
35891;SDS011;21993;42.672;23.296;2022-12-20T03:26:42;13.67;;;7.27;;
35891;SDS011;21993;42.672;23.296;2022-12-20T03:29:07;11.80;;;6.67;;
35891;SDS011;21993;42.672;23.296;2022-12-20T03:31:33;12.10;;;7.07;;
35891;SDS011;21993;42.672;23.296;2022-12-20T03:33:59;12.00;;;6.93;;
35891;SDS011;21993;42.672;23.296;2022-12-20T03:36:25;14.63;;;7.13;;
35891;SDS011;21993;42.672;23.296;2022-12-20T03:38:51;13.57;;;6.70;;
35891;SDS011;21993;42.672;23.296;2022-12-20T03:41:17;11.10;;;6.93;;
35891;SDS011;21993;42.672;23.296;2022-12-20T03:43:45;10.93;;;7.17;;
35891;SDS011;21993;42.672;23.296;2022-12-20T03:46:11;16.80;;;8.00;;
35891;SDS011;21993;42.672;23.296;2022-12-20T03:48:36;13.10;;;7.40;;
35891;SDS011;21993;42.672;23.296;2022-12-20T03:51:01;10.97;;;6.73;;
35891;SDS011;21993;42.672;23.296;2022-12-20T03:53:27;14.83;;;7.30;;
35891;SDS011;21993;42.672;23.296;2022-12-20T03:55:52;14.73;;;7.10;;
35891;SDS011;21993;42.672;23.296;2022-12-20T03:58:18;17.23;;;8.53;;
35891;SDS011;21993;42.672;23.296;2022-12-20T04:00:43;10.13;;;7.50;;
35891;SDS011;21993;42.672;23.296;2022-12-20T04:03:08;14.03;;;7.60;;
35891;SDS011;21993;42.672;23.296;2022-12-20T04:05:34;11.60;;;7.60;;
35891;SDS011;21993;42.672;23.296;2022-12-20T04:07:59;15.23;;;7.40;;
35891;SDS011;21993;42.672;23.296;2022-12-20T04:10:24;17.87;;;7.57;;
35891;SDS011;21993;42.672;23.296;2022-12-20T04:12:50;11.30;;;7.37;;
35891;SDS011;21993;42.672;23.296;2022-12-20T04:15:15;14.17;;;7.73;;
35891;SDS011;21993;42.672;23.296;2022-12-20T04:17:41;12.63;;;7.67;;
35891;SDS011;21993;42.672;23.296;2022-12-20T04:20:07;12.40;;;7.77;;
35891;SDS011;21993;42.672;23.296;2022-12-20T04:22:47;17.77;;;8.67;;
35891;SDS011;21993;42.672;23.296;2022-12-20T04:25:14;11.93;;;7.00;;
35891;SDS011;21993;42.672;23.296;2022-12-20T04:27:41;18.30;;;8.57;;
35891;SDS011;21993;42.672;23.296;2022-12-20T04:30:07;18.87;;;8.43;;
35891;SDS011;21993;42.672;23.296;2022-12-20T04:32:33;16.33;;;8.80;;
35891;SDS011;21993;42.672;23.296;2022-12-20T04:34:59;14.67;;;7.47;;
35891;SDS011;21993;42.672;23.296;2022-12-20T04:37:24;16.70;;;8.47;;
35891;SDS011;21993;42.672;23.296;2022-12-20T04:39:50;12.23;;;7.07;;
35891;SDS011;21993;42.672;23.296;2022-12-20T04:42:15;19.07;;;8.63;;
35891;SDS011;21993;42.672;23.296;2022-12-20T04:44:40;14.83;;;8.63;;
35891;SDS011;21993;42.672;23.296;2022-12-20T04:47:06;10.97;;;7.30;;
35891;SDS011;21993;42.672;23.296;2022-12-20T04:49:31;15.87;;;7.73;;
35891;SDS011;21993;42.672;23.296;2022-12-20T04:51:56;15.10;;;8.00;;
35891;SDS011;21993;42.672;23.296;2022-12-20T04:54:43;16.57;;;7.53;;
35891;SDS011;21993;42.672;23.296;2022-12-20T04:57:08;22.90;;;10.53;;
35891;SDS011;21993;42.672;23.296;2022-12-20T04:59:34;13.83;;;8.07;;
35891;SDS011;21993;42.672;23.296;2022-12-20T05:02:00;11.47;;;7.27;;
35891;SDS011;21993;42.672;23.296;2022-12-20T05:04:26;15.90;;;8.00;;
35891;SDS011;21993;42.672;23.296;2022-12-20T05:06:51;16.07;;;8.10;;
35891;SDS011;21993;42.672;23.296;2022-12-20T05:09:17;13.27;;;7.37;;
35891;SDS011;21993;42.672;23.296;2022-12-20T05:11:42;13.83;;;7.93;;
35891;SDS011;21993;42.672;23.296;2022-12-20T05:14:08;12.47;;;7.97;;
35891;SDS011;21993;42.672;23.296;2022-12-20T05:16:33;14.43;;;8.67;;
35891;SDS011;21993;42.672;23.296;2022-12-20T05:18:59;13.50;;;7.77;;
35891;SDS011;21993;42.672;23.296;2022-12-20T05:21:24;14.73;;;7.87;;
35891;SDS011;21993;42.672;23.296;2022-12-20T05:24:08;17.67;;;8.80;;
35891;SDS011;21993;42.672;23.296;2022-12-20T05:26:52;14.47;;;6.90;;
35891;SDS011;21993;42.672;23.296;2022-12-20T05:29:18;15.37;;;7.73;;
35891;SDS011;21993;42.672;23.296;2022-12-20T05:31:44;17.73;;;9.13;;
35891;SDS011;21993;42.672;23.296;2022-12-20T05:34:09;17.33;;;7.30;;
35891;SDS011;21993;42.672;23.296;2022-12-20T05:36:34;12.57;;;7.10;;
35891;SDS011;21993;42.672;23.296;2022-12-20T05:39:00;13.87;;;7.63;;
35891;SDS011;21993;42.672;23.296;2022-12-20T05:41:25;20.73;;;9.10;;
35891;SDS011;21993;42.672;23.296;2022-12-20T05:43:51;13.23;;;7.73;;
35891;SDS011;21993;42.672;23.296;2022-12-20T05:46:16;14.47;;;8.83;;
35891;SDS011;21993;42.672;23.296;2022-12-20T05:48:42;15.87;;;8.20;;
35891;SDS011;21993;42.672;23.296;2022-12-20T05:51:07;16.03;;;8.27;;
35891;SDS011;21993;42.672;23.296;2022-12-20T05:53:33;16.60;;;8.50;;
35891;SDS011;21993;42.672;23.296;2022-12-20T05:55:59;20.33;;;9.10;;
35891;SDS011;21993;42.672;23.296;2022-12-20T05:58:25;18.03;;;9.07;;
35891;SDS011;21993;42.672;23.296;2022-12-20T06:00:50;17.20;;;8.90;;
35891;SDS011;21993;42.672;23.296;2022-12-20T06:03:16;16.63;;;8.40;;
35891;SDS011;21993;42.672;23.296;2022-12-20T06:05:42;14.37;;;8.80;;
35891;SDS011;21993;42.672;23.296;2022-12-20T06:08:09;18.23;;;9.00;;
35891;SDS011;21993;42.672;23.296;2022-12-20T06:10:35;24.23;;;13.03;;
35891;SDS011;21993;42.672;23.296;2022-12-20T06:13:01;18.67;;;11.53;;
35891;SDS011;21993;42.672;23.296;2022-12-20T06:15:28;22.10;;;10.23;;
35891;SDS011;21993;42.672;23.296;2022-12-20T06:17:54;16.53;;;8.30;;
35891;SDS011;21993;42.672;23.296;2022-12-20T06:20:20;16.23;;;8.83;;
35891;SDS011;21993;42.672;23.296;2022-12-20T06:22:45;19.37;;;9.23;;
35891;SDS011;21993;42.672;23.296;2022-12-20T06:25:10;15.83;;;9.17;;
35891;SDS011;21993;42.672;23.296;2022-12-20T06:27:37;18.20;;;8.70;;
35891;SDS011;21993;42.672;23.296;2022-12-20T06:30:03;15.90;;;8.83;;
35891;SDS011;21993;42.672;23.296;2022-12-20T06:32:29;14.83;;;8.37;;
35891;SDS011;21993;42.672;23.296;2022-12-20T06:34:55;16.20;;;8.50;;
35891;SDS011;21993;42.672;23.296;2022-12-20T06:37:20;15.27;;;8.73;;
35891;SDS011;21993;42.672;23.296;2022-12-20T06:39:46;17.67;;;9.10;;
35891;SDS011;21993;42.672;23.296;2022-12-20T06:42:11;15.47;;;10.27;;
35891;SDS011;21993;42.672;23.296;2022-12-20T06:44:36;18.43;;;8.93;;
35891;SDS011;21993;42.672;23.296;2022-12-20T06:47:02;19.83;;;10.43;;
35891;SDS011;21993;42.672;23.296;2022-12-20T06:49:27;14.93;;;7.97;;
35891;SDS011;21993;42.672;23.296;2022-12-20T06:51:53;15.40;;;8.40;;
35891;SDS011;21993;42.672;23.296;2022-12-20T06:54:19;12.97;;;8.03;;
35891;SDS011;21993;42.672;23.296;2022-12-20T06:56:45;20.10;;;8.83;;
35891;SDS011;21993;42.672;23.296;2022-12-20T06:59:10;17.67;;;9.87;;
35891;SDS011;21993;42.672;23.296;2022-12-20T07:01:35;17.67;;;8.50;;
35891;SDS011;21993;42.672;23.296;2022-12-20T07:04:01;13.30;;;8.77;;
35891;SDS011;21993;42.672;23.296;2022-12-20T07:06:26;16.07;;;8.67;;
35891;SDS011;21993;42.672;23.296;2022-12-20T07:08:53;15.87;;;9.33;;
35891;SDS011;21993;42.672;23.296;2022-12-20T07:11:19;17.50;;;7.67;;
35891;SDS011;21993;42.672;23.296;2022-12-20T07:13:44;15.63;;;8.33;;
35891;SDS011;21993;42.672;23.296;2022-12-20T07:16:10;17.73;;;8.83;;
35891;SDS011;21993;42.672;23.296;2022-12-20T07:18:35;25.67;;;9.17;;
35891;SDS011;21993;42.672;23.296;2022-12-20T07:21:01;23.50;;;11.40;;
35891;SDS011;21993;42.672;23.296;2022-12-20T07:23:28;23.30;;;10.23;;
35891;SDS011;21993;42.672;23.296;2022-12-20T07:25:57;23.27;;;11.13;;
35891;SDS011;21993;42.672;23.296;2022-12-20T07:28:24;18.40;;;8.57;;
35891;SDS011;21993;42.672;23.296;2022-12-20T07:30:51;16.63;;;8.80;;
35891;SDS011;21993;42.672;23.296;2022-12-20T07:33:17;14.50;;;8.30;;
35891;SDS011;21993;42.672;23.296;2022-12-20T07:35:42;20.97;;;10.73;;
35891;SDS011;21993;42.672;23.296;2022-12-20T07:38:10;20.33;;;10.50;;
35891;SDS011;21993;42.672;23.296;2022-12-20T07:40:38;16.13;;;8.60;;
35891;SDS011;21993;42.672;23.296;2022-12-20T07:43:05;18.07;;;8.00;;
35891;SDS011;21993;42.672;23.296;2022-12-20T07:45:31;21.17;;;8.30;;
35891;SDS011;21993;42.672;23.296;2022-12-20T07:47:56;13.13;;;8.27;;
35891;SDS011;21993;42.672;23.296;2022-12-20T07:50:22;19.57;;;7.73;;
35891;SDS011;21993;42.672;23.296;2022-12-20T07:52:48;14.40;;;8.00;;
35891;SDS011;21993;42.672;23.296;2022-12-20T07:55:14;18.67;;;8.53;;
35891;SDS011;21993;42.672;23.296;2022-12-20T07:57:48;17.70;;;7.70;;
35891;SDS011;21993;42.672;23.296;2022-12-20T08:00:16;16.93;;;7.83;;
35891;SDS011;21993;42.672;23.296;2022-12-20T08:02:54;16.70;;;7.80;;
35891;SDS011;21993;42.672;23.296;2022-12-20T08:05:24;15.83;;;7.57;;
35891;SDS011;21993;42.672;23.296;2022-12-20T08:07:50;17.77;;;7.80;;
35891;SDS011;21993;42.672;23.296;2022-12-20T08:10:18;16.87;;;8.53;;
35891;SDS011;21993;42.672;23.296;2022-12-20T08:12:44;15.63;;;8.23;;
35891;SDS011;21993;42.672;23.296;2022-12-20T08:15:11;17.63;;;9.13;;
35891;SDS011;21993;42.672;23.296;2022-12-20T08:17:37;12.57;;;8.53;;
35891;SDS011;21993;42.672;23.296;2022-12-20T08:20:03;16.63;;;8.30;;
35891;SDS011;21993;42.672;23.296;2022-12-20T08:22:29;18.13;;;8.67;;
35891;SDS011;21993;42.672;23.296;2022-12-20T08:24:55;13.90;;;8.37;;
35891;SDS011;21993;42.672;23.296;2022-12-20T08:27:20;17.50;;;8.33;;
35891;SDS011;21993;42.672;23.296;2022-12-20T08:29:46;15.37;;;8.37;;
35891;SDS011;21993;42.672;23.296;2022-12-20T08:32:11;12.50;;;7.23;;
35891;SDS011;21993;42.672;23.296;2022-12-20T08:34:38;13.87;;;8.30;;
35891;SDS011;21993;42.672;23.296;2022-12-20T08:37:03;13.13;;;7.93;;
35891;SDS011;21993;42.672;23.296;2022-12-20T08:39:29;15.50;;;8.80;;
35891;SDS011;21993;42.672;23.296;2022-12-20T08:41:54;15.73;;;8.97;;
35891;SDS011;21993;42.672;23.296;2022-12-20T08:44:20;13.93;;;7.97;;
35891;SDS011;21993;42.672;23.296;2022-12-20T08:46:45;15.90;;;8.60;;
35891;SDS011;21993;42.672;23.296;2022-12-20T08:49:10;22.90;;;10.50;;
35891;SDS011;21993;42.672;23.296;2022-12-20T08:51:36;15.37;;;8.90;;
35891;SDS011;21993;42.672;23.296;2022-12-20T08:54:01;13.00;;;7.27;;
35891;SDS011;21993;42.672;23.296;2022-12-20T08:56:27;12.97;;;6.60;;
35891;SDS011;21993;42.672;23.296;2022-12-20T08:58:52;15.90;;;8.40;;
35891;SDS011;21993;42.672;23.296;2022-12-20T09:01:18;12.00;;;7.63;;
35891;SDS011;21993;42.672;23.296;2022-12-20T09:03:45;9.37;;;5.87;;
35891;SDS011;21993;42.672;23.296;2022-12-20T09:06:13;16.63;;;7.07;;
35891;SDS011;21993;42.672;23.296;2022-12-20T09:08:40;16.00;;;8.60;;
35891;SDS011;21993;42.672;23.296;2022-12-20T09:11:06;14.33;;;8.13;;
35891;SDS011;21993;42.672;23.296;2022-12-20T09:13:40;14.50;;;7.40;;
35891;SDS011;21993;42.672;23.296;2022-12-20T09:16:07;15.53;;;8.33;;
35891;SDS011;21993;42.672;23.296;2022-12-20T09:18:32;13.80;;;7.93;;
35891;SDS011;21993;42.672;23.296;2022-12-20T09:21:02;12.77;;;7.80;;
35891;SDS011;21993;42.672;23.296;2022-12-20T09:23:29;16.97;;;8.53;;
35891;SDS011;21993;42.672;23.296;2022-12-20T09:26:03;17.80;;;8.27;;
35891;SDS011;21993;42.672;23.296;2022-12-20T09:28:31;15.77;;;8.47;;
35891;SDS011;21993;42.672;23.296;2022-12-20T09:31:00;13.70;;;8.23;;
35891;SDS011;21993;42.672;23.296;2022-12-20T09:33:27;16.10;;;8.70;;
35891;SDS011;21993;42.672;23.296;2022-12-20T09:35:54;13.23;;;8.10;;
35891;SDS011;21993;42.672;23.296;2022-12-20T09:38:20;12.07;;;7.83;;
35891;SDS011;21993;42.672;23.296;2022-12-20T09:40:46;15.37;;;8.00;;
35891;SDS011;21993;42.672;23.296;2022-12-20T09:43:15;13.13;;;7.77;;
35891;SDS011;21993;42.672;23.296;2022-12-20T09:45:41;14.33;;;8.17;;
35891;SDS011;21993;42.672;23.296;2022-12-20T09:48:12;18.87;;;8.27;;
35891;SDS011;21993;42.672;23.296;2022-12-20T09:59:02;18.33;;;8.50;;
35891;SDS011;21993;42.672;23.296;2022-12-20T10:01:29;12.77;;;8.17;;
35891;SDS011;21993;42.672;23.296;2022-12-20T10:03:57;21.60;;;8.00;;
35891;SDS011;21993;42.672;23.296;2022-12-20T10:12:26;13.57;;;8.00;;
35891;SDS011;21993;42.672;23.296;2022-12-20T10:20:18;12.57;;;8.10;;
35891;SDS011;21993;42.672;23.296;2022-12-20T10:22:56;16.13;;;10.70;;
35891;SDS011;21993;42.672;23.296;2022-12-20T10:25:30;14.77;;;8.23;;
35891;SDS011;21993;42.672;23.296;2022-12-20T10:27:59;15.70;;;8.30;;
35891;SDS011;21993;42.672;23.296;2022-12-20T10:30:31;14.40;;;7.97;;
35891;SDS011;21993;42.672;23.296;2022-12-20T10:32:59;13.27;;;7.77;;
35891;SDS011;21993;42.672;23.296;2022-12-20T10:35:26;13.73;;;8.77;;
35891;SDS011;21993;42.672;23.296;2022-12-20T10:38:07;14.60;;;8.07;;
35891;SDS011;21993;42.672;23.296;2022-12-20T10:43:04;14.93;;;8.53;;
35891;SDS011;21993;42.672;23.296;2022-12-20T10:45:37;13.17;;;8.27;;
35891;SDS011;21993;42.672;23.296;2022-12-20T10:53:31;10.07;;;7.37;;
35891;SDS011;21993;42.672;23.296;2022-12-20T10:58:55;14.97;;;7.90;;
35891;SDS011;21993;42.672;23.296;2022-12-20T11:01:35;13.10;;;7.60;;
35891;SDS011;21993;42.672;23.296;2022-12-20T11:07:25;14.37;;;8.23;;
35891;SDS011;21993;42.672;23.296;2022-12-20T11:09:59;12.33;;;7.57;;
35891;SDS011;21993;42.672;23.296;2022-12-20T11:12:28;15.77;;;7.40;;
35891;SDS011;21993;42.672;23.296;2022-12-20T11:15:10;16.73;;;7.70;;
35891;SDS011;21993;42.672;23.296;2022-12-20T11:17:45;11.23;;;7.30;;
35891;SDS011;21993;42.672;23.296;2022-12-20T11:20:22;11.60;;;7.17;;
35891;SDS011;21993;42.672;23.296;2022-12-20T11:25:35;11.47;;;7.70;;
35891;SDS011;21993;42.672;23.296;2022-12-20T11:28:19;10.10;;;6.63;;
35891;SDS011;21993;42.672;23.296;2022-12-20T11:58:58;13.87;;;7.07;;
35891;SDS011;21993;42.672;23.296;2022-12-20T12:01:39;10.37;;;6.93;;
35891;SDS011;21993;42.672;23.296;2022-12-20T12:06:59;12.87;;;7.53;;
35891;SDS011;21993;42.672;23.296;2022-12-20T12:12:37;11.23;;;7.70;;
35891;SDS011;21993;42.672;23.296;2022-12-20T12:18:23;15.07;;;8.43;;
35891;SDS011;21993;42.672;23.296;2022-12-20T12:26:31;9.47;;;6.93;;
35891;SDS011;21993;42.672;23.296;2022-12-20T12:29:05;10.33;;;6.13;;
35891;SDS011;21993;42.672;23.296;2022-12-20T12:31:45;12.03;;;8.00;;
35891;SDS011;21993;42.672;23.296;2022-12-20T12:44:56;20.07;;;9.63;;
35891;SDS011;21993;42.672;23.296;2022-12-20T12:50:14;14.47;;;8.23;;
35891;SDS011;21993;42.672;23.296;2022-12-20T12:53:07;12.90;;;8.27;;
35891;SDS011;21993;42.672;23.296;2022-12-20T12:55:44;13.47;;;8.33;;
35891;SDS011;21993;42.672;23.296;2022-12-20T13:09:15;14.43;;;8.73;;
35891;SDS011;21993;42.672;23.296;2022-12-20T13:11:44;15.03;;;9.00;;
35891;SDS011;21993;42.672;23.296;2022-12-20T13:16:36;13.27;;;9.17;;
35891;SDS011;21993;42.672;23.296;2022-12-20T13:19:10;17.17;;;8.80;;
35891;SDS011;21993;42.672;23.296;2022-12-20T13:24:38;15.07;;;8.63;;
35891;SDS011;21993;42.672;23.296;2022-12-20T13:27:25;16.70;;;10.83;;
35891;SDS011;21993;42.672;23.296;2022-12-20T13:43:06;13.87;;;8.13;;
35891;SDS011;21993;42.672;23.296;2022-12-20T13:45:47;12.43;;;8.23;;
35891;SDS011;21993;42.672;23.296;2022-12-20T13:48:18;16.23;;;8.50;;
35891;SDS011;21993;42.672;23.296;2022-12-20T13:50:52;12.40;;;8.03;;
35891;SDS011;21993;42.672;23.296;2022-12-20T13:53:20;15.93;;;8.13;;
35891;SDS011;21993;42.672;23.296;2022-12-20T13:55:48;13.00;;;7.73;;
35891;SDS011;21993;42.672;23.296;2022-12-20T13:58:15;13.90;;;8.57;;
35891;SDS011;21993;42.672;23.296;2022-12-20T14:00:43;13.53;;;8.17;;
35891;SDS011;21993;42.672;23.296;2022-12-20T14:03:16;15.13;;;8.57;;
35891;SDS011;21993;42.672;23.296;2022-12-20T14:05:47;13.67;;;8.00;;
35891;SDS011;21993;42.672;23.296;2022-12-20T14:08:17;12.47;;;7.97;;
35891;SDS011;21993;42.672;23.296;2022-12-20T14:10:46;15.30;;;8.80;;
35891;SDS011;21993;42.672;23.296;2022-12-20T14:13:16;17.23;;;10.00;;
35891;SDS011;21993;42.672;23.296;2022-12-20T14:15:43;17.50;;;9.20;;
35891;SDS011;21993;42.672;23.296;2022-12-20T14:18:16;14.70;;;9.00;;
35891;SDS011;21993;42.672;23.296;2022-12-20T14:20:47;19.77;;;8.67;;
35891;SDS011;21993;42.672;23.296;2022-12-20T14:23:23;15.63;;;9.53;;
35891;SDS011;21993;42.672;23.296;2022-12-20T14:25:55;16.47;;;9.87;;
35891;SDS011;21993;42.672;23.296;2022-12-20T14:30:55;15.57;;;9.17;;
35891;SDS011;21993;42.672;23.296;2022-12-20T14:33:29;14.80;;;10.57;;
35891;SDS011;21993;42.672;23.296;2022-12-20T14:36:15;18.63;;;8.60;;
35891;SDS011;21993;42.672;23.296;2022-12-20T14:38:44;20.83;;;10.53;;
35891;SDS011;21993;42.672;23.296;2022-12-20T14:43:57;13.63;;;8.43;;
35891;SDS011;21993;42.672;23.296;2022-12-20T14:46:26;19.50;;;8.53;;
35891;SDS011;21993;42.672;23.296;2022-12-20T14:52:04;20.27;;;9.77;;
35891;SDS011;21993;42.672;23.296;2022-12-20T14:57:42;13.47;;;8.43;;
35891;SDS011;21993;42.672;23.296;2022-12-20T15:08:17;10.97;;;6.63;;
35891;SDS011;21993;42.672;23.296;2022-12-20T15:11:00;10.50;;;5.93;;
35891;SDS011;21993;42.672;23.296;2022-12-20T15:16:02;9.40;;;6.33;;
35891;SDS011;21993;42.672;23.296;2022-12-20T15:18:42;8.03;;;5.47;;
35891;SDS011;21993;42.672;23.296;2022-12-20T15:23:47;10.33;;;6.40;;
35891;SDS011;21993;42.672;23.296;2022-12-20T15:26:15;8.87;;;6.77;;
35891;SDS011;21993;42.672;23.296;2022-12-20T15:28:43;15.60;;;8.00;;
35891;SDS011;21993;42.672;23.296;2022-12-20T15:31:11;14.40;;;7.07;;
35891;SDS011;21993;42.672;23.296;2022-12-20T15:33:39;18.37;;;7.17;;
35891;SDS011;21993;42.672;23.296;2022-12-20T15:36:06;13.37;;;6.87;;
35891;SDS011;21993;42.672;23.296;2022-12-20T15:38:37;16.57;;;6.57;;
35891;SDS011;21993;42.672;23.296;2022-12-20T15:41:03;10.77;;;6.13;;
35891;SDS011;21993;42.672;23.296;2022-12-20T15:43:32;17.37;;;6.47;;
35891;SDS011;21993;42.672;23.296;2022-12-20T15:46:01;9.37;;;6.23;;
35891;SDS011;21993;42.672;23.296;2022-12-20T15:48:27;11.30;;;6.90;;
35891;SDS011;21993;42.672;23.296;2022-12-20T15:50:53;17.70;;;6.67;;
35891;SDS011;21993;42.672;23.296;2022-12-20T15:53:22;17.03;;;6.77;;
35891;SDS011;21993;42.672;23.296;2022-12-20T15:55:51;14.80;;;8.57;;
35891;SDS011;21993;42.672;23.296;2022-12-20T15:58:19;11.10;;;6.70;;
35891;SDS011;21993;42.672;23.296;2022-12-20T16:00:44;11.43;;;7.70;;
35891;SDS011;21993;42.672;23.296;2022-12-20T16:03:19;10.70;;;6.63;;
35891;SDS011;21993;42.672;23.296;2022-12-20T16:05:46;13.60;;;6.53;;
35891;SDS011;21993;42.672;23.296;2022-12-20T16:08:12;9.90;;;6.03;;
35891;SDS011;21993;42.672;23.296;2022-12-20T16:10:38;9.40;;;6.40;;
35891;SDS011;21993;42.672;23.296;2022-12-20T16:13:04;10.93;;;6.77;;
35891;SDS011;21993;42.672;23.296;2022-12-20T16:15:31;10.63;;;6.40;;
35891;SDS011;21993;42.672;23.296;2022-12-20T16:17:57;12.73;;;5.97;;
35891;SDS011;21993;42.672;23.296;2022-12-20T16:20:22;13.67;;;6.57;;
35891;SDS011;21993;42.672;23.296;2022-12-20T16:22:48;13.27;;;7.13;;
35891;SDS011;21993;42.672;23.296;2022-12-20T16:25:22;15.13;;;8.93;;
35891;SDS011;21993;42.672;23.296;2022-12-20T16:27:50;22.77;;;10.07;;
35891;SDS011;21993;42.672;23.296;2022-12-20T16:30:16;25.40;;;12.90;;
35891;SDS011;21993;42.672;23.296;2022-12-20T16:32:42;25.77;;;13.87;;
35891;SDS011;21993;42.672;23.296;2022-12-20T16:35:20;26.10;;;14.47;;
35891;SDS011;21993;42.672;23.296;2022-12-20T16:37:46;27.47;;;14.77;;
35891;SDS011;21993;42.672;23.296;2022-12-20T16:40:12;35.90;;;15.20;;
35891;SDS011;21993;42.672;23.296;2022-12-20T16:42:39;30.47;;;15.57;;
35891;SDS011;21993;42.672;23.296;2022-12-20T16:45:05;32.63;;;15.37;;
35891;SDS011;21993;42.672;23.296;2022-12-20T16:47:36;38.47;;;14.27;;
35891;SDS011;21993;42.672;23.296;2022-12-20T16:50:02;32.63;;;14.87;;
35891;SDS011;21993;42.672;23.296;2022-12-20T16:52:27;38.60;;;17.00;;
35891;SDS011;21993;42.672;23.296;2022-12-20T16:54:53;30.80;;;15.70;;
35891;SDS011;21993;42.672;23.296;2022-12-20T16:57:18;32.13;;;15.17;;
35891;SDS011;21993;42.672;23.296;2022-12-20T16:59:45;28.00;;;14.83;;
35891;SDS011;21993;42.672;23.296;2022-12-20T17:02:27;30.13;;;15.43;;
35891;SDS011;21993;42.672;23.296;2022-12-20T17:04:53;29.93;;;15.37;;
35891;SDS011;21993;42.672;23.296;2022-12-20T17:07:19;26.33;;;13.87;;
35891;SDS011;21993;42.672;23.296;2022-12-20T17:09:45;36.83;;;16.53;;
35891;SDS011;21993;42.672;23.296;2022-12-20T17:12:14;29.37;;;16.17;;
35891;SDS011;21993;42.672;23.296;2022-12-20T17:14:41;42.50;;;17.43;;
35891;SDS011;21993;42.672;23.296;2022-12-20T17:17:06;30.63;;;13.60;;
35891;SDS011;21993;42.672;23.296;2022-12-20T17:19:32;26.17;;;13.17;;